Accueil
METAR-TAF:

METAR-TAF

Aéroports :

Aéroport international V. C. Bird

Antigua, Antigua-et-Barbuda

latitude: 17-07N, longitude: 061-47W, altitude: 8 m

Observation

Le bulletin a été fait il y a 30 minutes, à 17:00 UTC
Vent 10 kt de nord-est, variant entre nord/nord-est et est
Température 28°C
Humidité 55%
Pression 1015 hPa
Visibilité 10 km ou plus
Quelques nuages à une hauteur de 2000 ft

METAR: TAPA 031700Z 05010KT 020V090 9999 FEW020 28/18 Q1015 NOSIG

Heure: 13:30 (17:30 UTC)

Prévision

Le bulletin a été fait il y a 6 heures et 30 minutes, à 11:00 UTC
Prévision valable du 03 à 12 UTC au 04 à 12 UTC
Vent 10 kt de est
Visibilité 10 km ou plus
Nuages épars à une hauteur de 2000 ft

TAF: TAPA 031100Z 0312/0412 08010KT 9999 SCT020

Observations et prévisions météorologiques de plus de 4000 aéroports (messages METAR et TAF).

Les stations disponibles sont représentées par des disques jaunes et rouges sur la carte.

Passer la souris dessus pour voir le nom de la station.

Cliquer dessus pour voir les observations et prévisions météorologiques.

Pour changer de carte: cliquez sur les boutons verts avec une croix noire pour zoomer, sur le bouton vert avec un tiret pour effectuer un zoom arrière, ou sur les flèches vertes pour les cartes adjacentes.


METAR-TAF: